sensor_id;sensor_type;location;lat;lon;timestamp;temperature;humidity
8664;DHT22;4369;47.842;13.096;2023-03-21T00:01:41;8.50;99.90
8664;DHT22;4369;47.842;13.096;2023-03-21T00:04:08;8.50;99.90
8664;DHT22;4369;47.842;13.096;2023-03-21T00:06:35;8.50;99.90
8664;DHT22;4369;47.842;13.096;2023-03-21T00:09:03;8.60;99.90
8664;DHT22;4369;47.842;13.096;2023-03-21T00:11:30;8.60;99.90
8664;DHT22;4369;47.842;13.096;2023-03-21T00:13:57;8.50;99.90
8664;DHT22;4369;47.842;13.096;2023-03-21T00:16:28;8.50;99.90
8664;DHT22;4369;47.842;13.096;2023-03-21T00:19:00;8.50;99.90
8664;DHT22;4369;47.842;13.096;2023-03-21T00:21:31;8.40;99.90
8664;DHT22;4369;47.842;13.096;2023-03-21T00:23:59;8.50;99.90
8664;DHT22;4369;47.842;13.096;2023-03-21T00:26:26;8.50;99.90
8664;DHT22;4369;47.842;13.096;2023-03-21T00:28:53;8.40;99.90
8664;DHT22;4369;47.842;13.096;2023-03-21T00:31:20;8.40;99.90
8664;DHT22;4369;47.842;13.096;2023-03-21T00:33:48;8.50;99.90
8664;DHT22;4369;47.842;13.096;2023-03-21T00:36:15;8.50;99.90
8664;DHT22;4369;47.842;13.096;2023-03-21T00:38:42;8.50;99.90
8664;DHT22;4369;47.842;13.096;2023-03-21T00:41:10;8.50;99.90
8664;DHT22;4369;47.842;13.096;2023-03-21T00:43:39;8.50;99.90
8664;DHT22;4369;47.842;13.096;2023-03-21T00:46:06;8.40;99.90
8664;DHT22;4369;47.842;13.096;2023-03-21T00:48:33;8.30;99.90
8664;DHT22;4369;47.842;13.096;2023-03-21T00:51:01;8.30;99.90
8664;DHT22;4369;47.842;13.096;2023-03-21T00:53:28;8.30;99.90
8664;DHT22;4369;47.842;13.096;2023-03-21T00:55:56;8.30;99.90
8664;DHT22;4369;47.842;13.096;2023-03-21T00:58:23;8.30;99.90
8664;DHT22;4369;47.842;13.096;2023-03-21T01:00:50;8.40;99.90
8664;DHT22;4369;47.842;13.096;2023-03-21T01:03:17;8.40;99.90
8664;DHT22;4369;47.842;13.096;2023-03-21T01:05:47;8.40;99.90
8664;DHT22;4369;47.842;13.096;2023-03-21T01:08:32;8.40;99.90
8664;DHT22;4369;47.842;13.096;2023-03-21T01:11:04;8.40;99.90
8664;DHT22;4369;47.842;13.096;2023-03-21T01:13:31;8.50;99.90
8664;DHT22;4369;47.842;13.096;2023-03-21T01:15:59;8.50;99.90
8664;DHT22;4369;47.842;13.096;2023-03-21T01:18:28;8.50;99.90
8664;DHT22;4369;47.842;13.096;2023-03-21T01:20:57;8.50;99.90
8664;DHT22;4369;47.842;13.096;2023-03-21T01:23:24;8.50;99.90
8664;DHT22;4369;47.842;13.096;2023-03-21T01:25:54;8.50;99.90
8664;DHT22;4369;47.842;13.096;2023-03-21T01:28:23;8.50;99.90
8664;DHT22;4369;47.842;13.096;2023-03-21T01:30:51;8.50;99.90
8664;DHT22;4369;47.842;13.096;2023-03-21T01:33:19;8.50;99.90
8664;DHT22;4369;47.842;13.096;2023-03-21T01:35:46;8.50;99.90
8664;DHT22;4369;47.842;13.096;2023-03-21T01:38:13;8.50;99.90
8664;DHT22;4369;47.842;13.096;2023-03-21T01:40:44;8.60;99.90
8664;DHT22;4369;47.842;13.096;2023-03-21T01:43:23;8.50;99.90
8664;DHT22;4369;47.842;13.096;2023-03-21T01:49:01;8.60;99.90
8664;DHT22;4369;47.842;13.096;2023-03-21T01:51:31;8.60;99.90
8664;DHT22;4369;47.842;13.096;2023-03-21T01:53:59;8.50;99.90
8664;DHT22;4369;47.842;13.096;2023-03-21T01:56:28;8.50;99.90
8664;DHT22;4369;47.842;13.096;2023-03-21T01:59:02;8.50;99.90
8664;DHT22;4369;47.842;13.096;2023-03-21T02:01:31;8.50;99.90
8664;DHT22;4369;47.842;13.096;2023-03-21T02:04:00;8.40;99.90
8664;DHT22;4369;47.842;13.096;2023-03-21T02:06:33;8.30;99.90
8664;DHT22;4369;47.842;13.096;2023-03-21T02:09:05;8.30;99.90
8664;DHT22;4369;47.842;13.096;2023-03-21T02:11:35;8.40;99.90
8664;DHT22;4369;47.842;13.096;2023-03-21T02:14:04;8.40;99.90
8664;DHT22;4369;47.842;13.096;2023-03-21T02:16:44;8.30;99.90
8664;DHT22;4369;47.842;13.096;2023-03-21T02:22:34;8.20;99.90
8664;DHT22;4369;47.842;13.096;2023-03-21T02:28:11;8.20;99.90
8664;DHT22;4369;47.842;13.096;2023-03-21T02:37:07;8.30;99.90
8664;DHT22;4369;47.842;13.096;2023-03-21T02:39:45;8.30;99.90
8664;DHT22;4369;47.842;13.096;2023-03-21T02:42:19;8.40;99.90
8664;DHT22;4369;47.842;13.096;2023-03-21T02:44:52;8.50;99.90
8664;DHT22;4369;47.842;13.096;2023-03-21T02:47:25;8.50;99.90
8664;DHT22;4369;47.842;13.096;2023-03-21T02:49:56;8.50;99.90
8664;DHT22;4369;47.842;13.096;2023-03-21T02:52:27;8.60;99.90
8664;DHT22;4369;47.842;13.096;2023-03-21T02:54:56;8.60;99.90
8664;DHT22;4369;47.842;13.096;2023-03-21T02:57:24;8.40;99.90
8664;DHT22;4369;47.842;13.096;2023-03-21T02:59:51;8.30;99.90
8664;DHT22;4369;47.842;13.096;2023-03-21T03:02:22;8.20;99.90
8664;DHT22;4369;47.842;13.096;2023-03-21T03:04:51;8.30;99.90
8664;DHT22;4369;47.842;13.096;2023-03-21T03:07:30;8.30;99.90
8664;DHT22;4369;47.842;13.096;2023-03-21T03:13:02;8.40;99.90
8664;DHT22;4369;47.842;13.096;2023-03-21T03:15:36;8.40;99.90
8664;DHT22;4369;47.842;13.096;2023-03-21T03:18:14;8.40;99.90
8664;DHT22;4369;47.842;13.096;2023-03-21T03:20:51;8.30;99.90
8664;DHT22;4369;47.842;13.096;2023-03-21T03:23:27;8.30;99.90
8664;DHT22;4369;47.842;13.096;2023-03-21T03:25:59;8.30;99.90
8664;DHT22;4369;47.842;13.096;2023-03-21T03:28:30;8.30;99.90
8664;DHT22;4369;47.842;13.096;2023-03-21T03:30:58;8.30;99.90
8664;DHT22;4369;47.842;13.096;2023-03-21T03:33:28;8.40;99.90
8664;DHT22;4369;47.842;13.096;2023-03-21T03:35:56;8.30;99.90
8664;DHT22;4369;47.842;13.096;2023-03-21T03:38:28;8.40;99.90
8664;DHT22;4369;47.842;13.096;2023-03-21T03:40:59;8.30;99.90
8664;DHT22;4369;47.842;13.096;2023-03-21T03:43:33;8.30;99.90
8664;DHT22;4369;47.842;13.096;2023-03-21T03:46:07;8.10;99.90
8664;DHT22;4369;47.842;13.096;2023-03-21T03:48:41;8.10;99.90
8664;DHT22;4369;47.842;13.096;2023-03-21T03:51:15;8.20;99.90
8664;DHT22;4369;47.842;13.096;2023-03-21T03:53:50;8.20;99.90
8664;DHT22;4369;47.842;13.096;2023-03-21T03:56:19;8.10;99.90
8664;DHT22;4369;47.842;13.096;2023-03-21T03:58:47;8.20;99.90
8664;DHT22;4369;47.842;13.096;2023-03-21T04:01:14;8.20;99.90
8664;DHT22;4369;47.842;13.096;2023-03-21T04:03:43;8.20;99.90
8664;DHT22;4369;47.842;13.096;2023-03-21T04:06:11;8.10;99.90
8664;DHT22;4369;47.842;13.096;2023-03-21T04:08:38;8.10;99.90
8664;DHT22;4369;47.842;13.096;2023-03-21T04:11:07;8.10;99.90
8664;DHT22;4369;47.842;13.096;2023-03-21T04:13:34;8.10;99.90
8664;DHT22;4369;47.842;13.096;2023-03-21T04:16:00;8.20;99.90
8664;DHT22;4369;47.842;13.096;2023-03-21T04:18:28;8.20;99.90
8664;DHT22;4369;47.842;13.096;2023-03-21T04:20:55;8.10;99.90
8664;DHT22;4369;47.842;13.096;2023-03-21T04:23:22;8.10;99.90
8664;DHT22;4369;47.842;13.096;2023-03-21T04:25:49;8.00;99.90
8664;DHT22;4369;47.842;13.096;2023-03-21T04:28:17;8.00;99.90
8664;DHT22;4369;47.842;13.096;2023-03-21T04:30:47;7.90;99.90
8664;DHT22;4369;47.842;13.096;2023-03-21T04:33:15;7.90;99.90
8664;DHT22;4369;47.842;13.096;2023-03-21T04:35:42;7.90;99.90
8664;DHT22;4369;47.842;13.096;2023-03-21T04:38:10;8.00;99.90
8664;DHT22;4369;47.842;13.096;2023-03-21T04:40:37;8.10;99.90
8664;DHT22;4369;47.842;13.096;2023-03-21T04:43:04;8.00;99.90
8664;DHT22;4369;47.842;13.096;2023-03-21T04:45:34;7.90;99.90
8664;DHT22;4369;47.842;13.096;2023-03-21T04:48:01;7.90;99.90
8664;DHT22;4369;47.842;13.096;2023-03-21T04:50:28;8.00;99.90
8664;DHT22;4369;47.842;13.096;2023-03-21T04:52:56;8.10;99.90
8664;DHT22;4369;47.842;13.096;2023-03-21T04:55:23;8.00;99.90
8664;DHT22;4369;47.842;13.096;2023-03-21T04:57:52;8.10;99.90
8664;DHT22;4369;47.842;13.096;2023-03-21T05:00:19;8.10;99.90
8664;DHT22;4369;47.842;13.096;2023-03-21T05:02:48;8.10;99.90
8664;DHT22;4369;47.842;13.096;2023-03-21T05:05:15;8.10;99.90
8664;DHT22;4369;47.842;13.096;2023-03-21T05:07:42;8.00;99.90
8664;DHT22;4369;47.842;13.096;2023-03-21T05:10:11;8.00;99.90
8664;DHT22;4369;47.842;13.096;2023-03-21T05:12:38;8.00;99.90
8664;DHT22;4369;47.842;13.096;2023-03-21T05:15:06;8.10;99.90
8664;DHT22;4369;47.842;13.096;2023-03-21T05:17:34;8.00;99.90
8664;DHT22;4369;47.842;13.096;2023-03-21T05:20:03;8.10;99.90
8664;DHT22;4369;47.842;13.096;2023-03-21T05:22:30;8.00;99.90
8664;DHT22;4369;47.842;13.096;2023-03-21T05:25:06;7.90;99.90
8664;DHT22;4369;47.842;13.096;2023-03-21T05:27:33;8.10;99.90
8664;DHT22;4369;47.842;13.096;2023-03-21T05:30:04;8.10;99.90
8664;DHT22;4369;47.842;13.096;2023-03-21T05:32:31;8.20;99.90
8664;DHT22;4369;47.842;13.096;2023-03-21T05:34:58;8.20;99.90
8664;DHT22;4369;47.842;13.096;2023-03-21T05:37:26;8.10;99.90
8664;DHT22;4369;47.842;13.096;2023-03-21T05:39:53;8.10;99.90
8664;DHT22;4369;47.842;13.096;2023-03-21T05:42:20;8.10;99.90
8664;DHT22;4369;47.842;13.096;2023-03-21T05:44:47;8.20;99.90
8664;DHT22;4369;47.842;13.096;2023-03-21T05:47:15;8.20;99.90
8664;DHT22;4369;47.842;13.096;2023-03-21T05:49:43;8.40;99.90
8664;DHT22;4369;47.842;13.096;2023-03-21T05:52:10;8.30;99.90
8664;DHT22;4369;47.842;13.096;2023-03-21T05:54:38;8.30;99.90
8664;DHT22;4369;47.842;13.096;2023-03-21T05:57:06;8.30;99.90
8664;DHT22;4369;47.842;13.096;2023-03-21T05:59:33;8.40;99.90
8664;DHT22;4369;47.842;13.096;2023-03-21T06:02:00;8.50;99.90
8664;DHT22;4369;47.842;13.096;2023-03-21T06:04:27;8.50;99.90
8664;DHT22;4369;47.842;13.096;2023-03-21T06:06:54;8.50;99.90
8664;DHT22;4369;47.842;13.096;2023-03-21T06:09:21;8.40;99.90
8664;DHT22;4369;47.842;13.096;2023-03-21T06:11:51;8.50;99.90
8664;DHT22;4369;47.842;13.096;2023-03-21T06:14:19;8.50;99.90
8664;DHT22;4369;47.842;13.096;2023-03-21T06:16:46;8.70;99.90
8664;DHT22;4369;47.842;13.096;2023-03-21T06:19:13;8.70;99.90
8664;DHT22;4369;47.842;13.096;2023-03-21T06:21:40;8.70;99.90
8664;DHT22;4369;47.842;13.096;2023-03-21T06:24:07;8.70;99.90
8664;DHT22;4369;47.842;13.096;2023-03-21T06:26:35;8.70;99.90
8664;DHT22;4369;47.842;13.096;2023-03-21T06:29:04;8.80;99.90
8664;DHT22;4369;47.842;13.096;2023-03-21T06:31:30;8.80;99.90
8664;DHT22;4369;47.842;13.096;2023-03-21T06:33:57;8.90;99.90
8664;DHT22;4369;47.842;13.096;2023-03-21T06:36:24;8.90;99.90
8664;DHT22;4369;47.842;13.096;2023-03-21T06:38:51;8.90;99.90
8664;DHT22;4369;47.842;13.096;2023-03-21T06:41:18;9.00;99.90
8664;DHT22;4369;47.842;13.096;2023-03-21T06:43:45;9.00;99.90
8664;DHT22;4369;47.842;13.096;2023-03-21T06:46:14;9.00;99.90
8664;DHT22;4369;47.842;13.096;2023-03-21T06:48:41;9.20;99.90
8664;DHT22;4369;47.842;13.096;2023-03-21T06:51:10;9.30;99.90
8664;DHT22;4369;47.842;13.096;2023-03-21T06:53:37;9.40;99.90
8664;DHT22;4369;47.842;13.096;2023-03-21T06:56:06;9.50;99.90
8664;DHT22;4369;47.842;13.096;2023-03-21T06:58:33;9.70;99.90
8664;DHT22;4369;47.842;13.096;2023-03-21T07:01:01;9.80;99.90
8664;DHT22;4369;47.842;13.096;2023-03-21T07:03:29;9.90;99.90
8664;DHT22;4369;47.842;13.096;2023-03-21T07:05:57;10.00;99.90
8664;DHT22;4369;47.842;13.096;2023-03-21T07:08:24;10.10;99.90
8664;DHT22;4369;47.842;13.096;2023-03-21T07:10:55;10.10;99.90
8664;DHT22;4369;47.842;13.096;2023-03-21T07:13:22;10.20;99.90
8664;DHT22;4369;47.842;13.096;2023-03-21T07:15:51;10.30;99.90
8664;DHT22;4369;47.842;13.096;2023-03-21T07:18:18;10.40;99.90
8664;DHT22;4369;47.842;13.096;2023-03-21T07:20:47;10.40;99.90
8664;DHT22;4369;47.842;13.096;2023-03-21T07:23:16;10.60;99.90
8664;DHT22;4369;47.842;13.096;2023-03-21T07:25:43;10.70;99.90
8664;DHT22;4369;47.842;13.096;2023-03-21T07:28:11;10.60;99.90
8664;DHT22;4369;47.842;13.096;2023-03-21T07:30:37;10.80;99.90
8664;DHT22;4369;47.842;13.096;2023-03-21T07:33:04;11.20;99.90
8664;DHT22;4369;47.842;13.096;2023-03-21T07:35:32;11.30;99.90
8664;DHT22;4369;47.842;13.096;2023-03-21T07:38:02;11.40;99.90
8664;DHT22;4369;47.842;13.096;2023-03-21T07:40:29;11.40;99.90
8664;DHT22;4369;47.842;13.096;2023-03-21T07:42:55;11.60;99.90
8664;DHT22;4369;47.842;13.096;2023-03-21T07:45:22;11.80;99.90
8664;DHT22;4369;47.842;13.096;2023-03-21T07:47:51;11.90;99.90
8664;DHT22;4369;47.842;13.096;2023-03-21T07:50:18;11.90;99.90
8664;DHT22;4369;47.842;13.096;2023-03-21T07:52:46;11.90;99.90
8664;DHT22;4369;47.842;13.096;2023-03-21T07:55:14;11.80;99.90
8664;DHT22;4369;47.842;13.096;2023-03-21T07:57:42;11.70;99.90
8664;DHT22;4369;47.842;13.096;2023-03-21T08:00:10;11.90;99.90
8664;DHT22;4369;47.842;13.096;2023-03-21T08:02:38;12.00;99.90
8664;DHT22;4369;47.842;13.096;2023-03-21T08:05:05;12.00;99.90
8664;DHT22;4369;47.842;13.096;2023-03-21T08:07:32;12.10;99.90
8664;DHT22;4369;47.842;13.096;2023-03-21T08:10:00;12.20;99.90
8664;DHT22;4369;47.842;13.096;2023-03-21T08:12:28;12.20;99.90
8664;DHT22;4369;47.842;13.096;2023-03-21T08:14:55;12.30;99.90
8664;DHT22;4369;47.842;13.096;2023-03-21T08:17:21;12.30;99.90
8664;DHT22;4369;47.842;13.096;2023-03-21T08:19:48;12.40;99.90
8664;DHT22;4369;47.842;13.096;2023-03-21T08:22:15;12.60;99.90
8664;DHT22;4369;47.842;13.096;2023-03-21T08:24:42;12.70;99.90
8664;DHT22;4369;47.842;13.096;2023-03-21T08:27:09;12.70;99.90
8664;DHT22;4369;47.842;13.096;2023-03-21T08:29:37;12.90;99.90
8664;DHT22;4369;47.842;13.096;2023-03-21T08:32:07;13.00;99.90
8664;DHT22;4369;47.842;13.096;2023-03-21T08:34:35;13.10;99.90
8664;DHT22;4369;47.842;13.096;2023-03-21T08:37:02;13.10;99.90
8664;DHT22;4369;47.842;13.096;2023-03-21T08:39:29;13.30;99.90
8664;DHT22;4369;47.842;13.096;2023-03-21T08:41:56;13.30;99.90
8664;DHT22;4369;47.842;13.096;2023-03-21T08:44:22;13.20;99.90
8664;DHT22;4369;47.842;13.096;2023-03-21T08:46:51;13.40;99.90
8664;DHT22;4369;47.842;13.096;2023-03-21T08:49:18;13.70;99.90
8664;DHT22;4369;47.842;13.096;2023-03-21T08:51:45;13.80;99.90
8664;DHT22;4369;47.842;13.096;2023-03-21T08:54:19;13.70;99.90
8664;DHT22;4369;47.842;13.096;2023-03-21T08:56:47;13.70;99.90
8664;DHT22;4369;47.842;13.096;2023-03-21T08:59:14;14.00;99.90
8664;DHT22;4369;47.842;13.096;2023-03-21T09:01:41;14.10;99.90
8664;DHT22;4369;47.842;13.096;2023-03-21T09:04:09;14.20;99.90
8664;DHT22;4369;47.842;13.096;2023-03-21T09:06:36;14.40;99.90
8664;DHT22;4369;47.842;13.096;2023-03-21T09:09:04;14.00;99.90
8664;DHT22;4369;47.842;13.096;2023-03-21T09:11:33;14.00;99.90
8664;DHT22;4369;47.842;13.096;2023-03-21T09:14:00;14.30;99.90
8664;DHT22;4369;47.842;13.096;2023-03-21T09:16:27;14.40;99.90
8664;DHT22;4369;47.842;13.096;2023-03-21T09:18:54;14.40;99.90
8664;DHT22;4369;47.842;13.096;2023-03-21T09:21:26;14.40;99.90
8664;DHT22;4369;47.842;13.096;2023-03-21T09:23:53;14.50;99.90
8664;DHT22;4369;47.842;13.096;2023-03-21T09:26:24;14.70;99.90
8664;DHT22;4369;47.842;13.096;2023-03-21T09:28:52;14.90;99.90
8664;DHT22;4369;47.842;13.096;2023-03-21T09:31:19;15.00;99.60
8664;DHT22;4369;47.842;13.096;2023-03-21T09:33:47;15.10;98.50
8664;DHT22;4369;47.842;13.096;2023-03-21T09:36:14;15.10;98.70
8664;DHT22;4369;47.842;13.096;2023-03-21T09:38:45;15.30;98.70
8664;DHT22;4369;47.842;13.096;2023-03-21T09:44:18;15.70;97.70
8664;DHT22;4369;47.842;13.096;2023-03-21T09:46:51;15.80;97.90
8664;DHT22;4369;47.842;13.096;2023-03-21T09:49:22;15.80;96.10
8664;DHT22;4369;47.842;13.096;2023-03-21T09:51:57;16.00;96.30
8664;DHT22;4369;47.842;13.096;2023-03-21T09:54:28;16.30;95.90
8664;DHT22;4369;47.842;13.096;2023-03-21T09:57:02;16.00;95.30
8664;DHT22;4369;47.842;13.096;2023-03-21T09:59:34;15.80;95.80
8664;DHT22;4369;47.842;13.096;2023-03-21T10:02:18;15.80;95.80
8664;DHT22;4369;47.842;13.096;2023-03-21T10:04:47;15.70;95.40
8664;DHT22;4369;47.842;13.096;2023-03-21T10:07:14;15.60;95.90
8664;DHT22;4369;47.842;13.096;2023-03-21T10:09:45;15.70;96.60
8664;DHT22;4369;47.842;13.096;2023-03-21T10:12:20;15.80;95.70
8664;DHT22;4369;47.842;13.096;2023-03-21T10:14:49;15.80;95.50
8664;DHT22;4369;47.842;13.096;2023-03-21T10:17:24;15.80;95.20
8664;DHT22;4369;47.842;13.096;2023-03-21T10:19:57;15.80;95.00
8664;DHT22;4369;47.842;13.096;2023-03-21T10:22:35;15.90;95.30
8664;DHT22;4369;47.842;13.096;2023-03-21T10:25:04;16.20;95.00
8664;DHT22;4369;47.842;13.096;2023-03-21T10:27:32;16.20;94.00
8664;DHT22;4369;47.842;13.096;2023-03-21T10:30:01;16.40;94.30
8664;DHT22;4369;47.842;13.096;2023-03-21T10:32:33;16.60;94.30
8664;DHT22;4369;47.842;13.096;2023-03-21T10:35:00;17.00;93.00
8664;DHT22;4369;47.842;13.096;2023-03-21T10:37:29;17.20;93.50
8664;DHT22;4369;47.842;13.096;2023-03-21T10:39:56;17.20;91.40
8664;DHT22;4369;47.842;13.096;2023-03-21T10:42:26;17.30;91.80
8664;DHT22;4369;47.842;13.096;2023-03-21T10:44:55;17.60;92.20
8664;DHT22;4369;47.842;13.096;2023-03-21T10:47:24;17.70;91.20
8664;DHT22;4369;47.842;13.096;2023-03-21T10:49:52;17.80;89.90
8664;DHT22;4369;47.842;13.096;2023-03-21T10:52:21;18.10;88.40
8664;DHT22;4369;47.842;13.096;2023-03-21T10:54:49;18.10;86.60
8664;DHT22;4369;47.842;13.096;2023-03-21T10:57:19;18.40;85.90
8664;DHT22;4369;47.842;13.096;2023-03-21T10:59:50;18.30;84.30
8664;DHT22;4369;47.842;13.096;2023-03-21T11:02:24;18.10;85.80
8664;DHT22;4369;47.842;13.096;2023-03-21T11:04:52;17.70;85.20
8664;DHT22;4369;47.842;13.096;2023-03-21T11:07:21;17.50;86.10
8664;DHT22;4369;47.842;13.096;2023-03-21T11:09:54;17.70;85.80
8664;DHT22;4369;47.842;13.096;2023-03-21T11:12:28;17.80;87.20
8664;DHT22;4369;47.842;13.096;2023-03-21T11:15:18;17.90;85.70
8664;DHT22;4369;47.842;13.096;2023-03-21T11:17:49;17.80;83.60
8664;DHT22;4369;47.842;13.096;2023-03-21T11:20:17;17.90;84.10
8664;DHT22;4369;47.842;13.096;2023-03-21T11:22:45;18.30;84.60
8664;DHT22;4369;47.842;13.096;2023-03-21T11:25:20;18.70;83.10
8664;DHT22;4369;47.842;13.096;2023-03-21T11:27:49;18.50;82.60
8664;DHT22;4369;47.842;13.096;2023-03-21T11:30:21;18.70;84.00
8664;DHT22;4369;47.842;13.096;2023-03-21T11:32:53;18.70;82.70
8664;DHT22;4369;47.842;13.096;2023-03-21T11:35:22;19.10;83.30
8664;DHT22;4369;47.842;13.096;2023-03-21T11:37:51;19.30;81.40
8664;DHT22;4369;47.842;13.096;2023-03-21T11:40:22;19.30;78.70
8664;DHT22;4369;47.842;13.096;2023-03-21T11:42:51;19.20;81.90
8664;DHT22;4369;47.842;13.096;2023-03-21T11:45:22;19.40;77.70
8664;DHT22;4369;47.842;13.096;2023-03-21T11:47:51;19.70;76.90
8664;DHT22;4369;47.842;13.096;2023-03-21T11:50:25;19.40;80.80
8664;DHT22;4369;47.842;13.096;2023-03-21T11:53:10;19.70;81.40
8664;DHT22;4369;47.842;13.096;2023-03-21T11:55:55;20.10;74.40
8664;DHT22;4369;47.842;13.096;2023-03-21T11:58:34;20.50;74.10
8664;DHT22;4369;47.842;13.096;2023-03-21T12:01:11;21.20;71.50
8664;DHT22;4369;47.842;13.096;2023-03-21T12:03:58;21.80;67.90
8664;DHT22;4369;47.842;13.096;2023-03-21T12:06:34;22.80;63.60
8664;DHT22;4369;47.842;13.096;2023-03-21T12:09:15;23.70;63.10
8664;DHT22;4369;47.842;13.096;2023-03-21T12:11:51;24.80;59.30
8664;DHT22;4369;47.842;13.096;2023-03-21T12:14:25;26.00;56.80
8664;DHT22;4369;47.842;13.096;2023-03-21T12:17:05;26.60;52.80
8664;DHT22;4369;47.842;13.096;2023-03-21T12:19:54;28.60;49.20
8664;DHT22;4369;47.842;13.096;2023-03-21T12:22:29;29.80;45.10
8664;DHT22;4369;47.842;13.096;2023-03-21T12:25:03;32.40;40.80
8664;DHT22;4369;47.842;13.096;2023-03-21T12:27:38;34.40;36.60
8664;DHT22;4369;47.842;13.096;2023-03-21T12:30:28;35.80;34.50
8664;DHT22;4369;47.842;13.096;2023-03-21T12:33:15;36.00;32.30
8664;DHT22;4369;47.842;13.096;2023-03-21T12:35:52;37.90;30.00
8664;DHT22;4369;47.842;13.096;2023-03-21T12:38:23;38.00;29.30
8664;DHT22;4369;47.842;13.096;2023-03-21T12:41:08;39.80;28.80
8664;DHT22;4369;47.842;13.096;2023-03-21T12:43:41;41.90;26.30
8664;DHT22;4369;47.842;13.096;2023-03-21T12:46:14;45.40;24.90
8664;DHT22;4369;47.842;13.096;2023-03-21T12:48:47;48.00;23.70
8664;DHT22;4369;47.842;13.096;2023-03-21T12:51:19;49.70;22.60
8664;DHT22;4369;47.842;13.096;2023-03-21T12:53:58;49.10;21.70
8664;DHT22;4369;47.842;13.096;2023-03-21T12:56:30;50.50;22.00
8664;DHT22;4369;47.842;13.096;2023-03-21T12:59:04;49.70;21.80
8664;DHT22;4369;47.842;13.096;2023-03-21T13:01:34;50.70;22.00
8664;DHT22;4369;47.842;13.096;2023-03-21T13:06:55;51.10;20.20
8664;DHT22;4369;47.842;13.096;2023-03-21T13:09:30;51.30;19.80
8664;DHT22;4369;47.842;13.096;2023-03-21T13:12:05;51.90;20.60
8664;DHT22;4369;47.842;13.096;2023-03-21T13:14:41;53.00;20.50
8664;DHT22;4369;47.842;13.096;2023-03-21T13:17:15;50.60;19.60
8664;DHT22;4369;47.842;13.096;2023-03-21T13:19:50;48.40;20.20
8664;DHT22;4369;47.842;13.096;2023-03-21T13:22:24;47.10;20.50
8664;DHT22;4369;47.842;13.096;2023-03-21T13:24:57;48.20;20.50
8664;DHT22;4369;47.842;13.096;2023-03-21T13:27:27;49.10;20.60
8664;DHT22;4369;47.842;13.096;2023-03-21T13:29:58;48.30;20.10
8664;DHT22;4369;47.842;13.096;2023-03-21T13:32:29;46.80;20.40
8664;DHT22;4369;47.842;13.096;2023-03-21T13:34:59;46.90;21.10
8664;DHT22;4369;47.842;13.096;2023-03-21T13:37:30;46.10;21.70
8664;DHT22;4369;47.842;13.096;2023-03-21T13:40:04;43.80;21.90
8664;DHT22;4369;47.842;13.096;2023-03-21T13:42:43;42.80;23.10
8664;DHT22;4369;47.842;13.096;2023-03-21T13:45:23;42.50;23.10
8664;DHT22;4369;47.842;13.096;2023-03-21T13:47:55;44.00;22.20
8664;DHT22;4369;47.842;13.096;2023-03-21T13:50:33;45.10;21.70
8664;DHT22;4369;47.842;13.096;2023-03-21T13:56:19;41.20;22.20
8664;DHT22;4369;47.842;13.096;2023-03-21T13:58:52;38.30;23.50
8664;DHT22;4369;47.842;13.096;2023-03-21T14:04:12;37.50;25.30
8664;DHT22;4369;47.842;13.096;2023-03-21T14:06:45;41.70;23.10
8664;DHT22;4369;47.842;13.096;2023-03-21T14:09:20;42.70;22.20
8664;DHT22;4369;47.842;13.096;2023-03-21T14:11:49;41.60;23.30
8664;DHT22;4369;47.842;13.096;2023-03-21T14:14:19;39.90;23.40
8664;DHT22;4369;47.842;13.096;2023-03-21T14:16:46;38.50;24.70
8664;DHT22;4369;47.842;13.096;2023-03-21T14:19:13;37.40;24.90
8664;DHT22;4369;47.842;13.096;2023-03-21T14:21:48;37.30;25.50
8664;DHT22;4369;47.842;13.096;2023-03-21T14:24:19;35.90;26.40
8664;DHT22;4369;47.842;13.096;2023-03-21T14:26:48;34.50;27.30
8664;DHT22;4369;47.842;13.096;2023-03-21T14:29:21;33.30;27.20
8664;DHT22;4369;47.842;13.096;2023-03-21T14:31:48;32.40;28.20
8664;DHT22;4369;47.842;13.096;2023-03-21T14:34:16;32.10;28.80
8664;DHT22;4369;47.842;13.096;2023-03-21T14:36:43;30.90;29.20
8664;DHT22;4369;47.842;13.096;2023-03-21T14:39:14;30.10;31.50
8664;DHT22;4369;47.842;13.096;2023-03-21T14:41:47;30.00;31.80
8664;DHT22;4369;47.842;13.096;2023-03-21T14:44:20;30.20;31.10
8664;DHT22;4369;47.842;13.096;2023-03-21T14:46:51;29.50;31.10
8664;DHT22;4369;47.842;13.096;2023-03-21T14:49:22;29.30;32.00
8664;DHT22;4369;47.842;13.096;2023-03-21T14:51:52;29.20;33.60
8664;DHT22;4369;47.842;13.096;2023-03-21T14:54:21;28.90;33.70
8664;DHT22;4369;47.842;13.096;2023-03-21T14:56:50;28.50;34.50
8664;DHT22;4369;47.842;13.096;2023-03-21T14:59:20;27.90;34.80
8664;DHT22;4369;47.842;13.096;2023-03-21T15:01:49;27.40;36.00
8664;DHT22;4369;47.842;13.096;2023-03-21T15:04:17;27.20;36.90
8664;DHT22;4369;47.842;13.096;2023-03-21T15:06:56;26.60;35.50
8664;DHT22;4369;47.842;13.096;2023-03-21T15:09:27;26.30;36.20
8664;DHT22;4369;47.842;13.096;2023-03-21T15:11:55;25.10;38.00
8664;DHT22;4369;47.842;13.096;2023-03-21T15:14:28;24.60;39.50
8664;DHT22;4369;47.842;13.096;2023-03-21T15:16:57;24.30;40.00
8664;DHT22;4369;47.842;13.096;2023-03-21T15:19:29;24.00;40.70
8664;DHT22;4369;47.842;13.096;2023-03-21T15:22:04;23.60;41.20
8664;DHT22;4369;47.842;13.096;2023-03-21T15:24:37;23.30;42.00
8664;DHT22;4369;47.842;13.096;2023-03-21T15:27:07;23.20;43.40
8664;DHT22;4369;47.842;13.096;2023-03-21T15:29:36;23.00;43.10
8664;DHT22;4369;47.842;13.096;2023-03-21T15:32:05;23.00;41.10
8664;DHT22;4369;47.842;13.096;2023-03-21T15:34:32;23.00;43.20
8664;DHT22;4369;47.842;13.096;2023-03-21T15:37:03;22.70;42.10
8664;DHT22;4369;47.842;13.096;2023-03-21T15:39:31;22.20;41.90
8664;DHT22;4369;47.842;13.096;2023-03-21T15:42:04;22.00;43.60
8664;DHT22;4369;47.842;13.096;2023-03-21T15:44:32;21.70;44.20
8664;DHT22;4369;47.842;13.096;2023-03-21T15:47:00;21.50;43.80
8664;DHT22;4369;47.842;13.096;2023-03-21T15:49:29;21.20;44.10
8664;DHT22;4369;47.842;13.096;2023-03-21T15:52:05;21.10;44.70
8664;DHT22;4369;47.842;13.096;2023-03-21T15:54:34;21.10;45.50
8664;DHT22;4369;47.842;13.096;2023-03-21T15:57:18;20.90;46.90
8664;DHT22;4369;47.842;13.096;2023-03-21T15:59:47;20.70;47.00
8664;DHT22;4369;47.842;13.096;2023-03-21T16:02:16;20.30;48.10
8664;DHT22;4369;47.842;13.096;2023-03-21T16:04:55;19.90;48.50
8664;DHT22;4369;47.842;13.096;2023-03-21T16:07:23;19.90;47.40
8664;DHT22;4369;47.842;13.096;2023-03-21T16:09:57;19.80;47.50
8664;DHT22;4369;47.842;13.096;2023-03-21T16:12:25;19.70;47.40
8664;DHT22;4369;47.842;13.096;2023-03-21T16:14:52;19.60;49.00
8664;DHT22;4369;47.842;13.096;2023-03-21T16:17:31;19.40;51.30
8664;DHT22;4369;47.842;13.096;2023-03-21T16:20:02;19.40;50.10
8664;DHT22;4369;47.842;13.096;2023-03-21T16:22:30;19.50;51.40
8664;DHT22;4369;47.842;13.096;2023-03-21T16:24:59;19.40;51.60
8664;DHT22;4369;47.842;13.096;2023-03-21T16:27:27;19.20;52.50
8664;DHT22;4369;47.842;13.096;2023-03-21T16:29:54;19.00;53.10
8664;DHT22;4369;47.842;13.096;2023-03-21T16:32:21;18.70;53.40
8664;DHT22;4369;47.842;13.096;2023-03-21T16:34:48;18.50;55.30
8664;DHT22;4369;47.842;13.096;2023-03-21T16:37:18;18.20;56.40
8664;DHT22;4369;47.842;13.096;2023-03-21T16:39:46;17.90;58.10
8664;DHT22;4369;47.842;13.096;2023-03-21T16:42:13;17.60;58.00